Time;durP1;ratioP1;P1;durP2;ratioP2;P2;SDS_P1;SDS_P2;PMS_P1;PMS_P2;Temp;Humidity;BMP_temperature;BMP_pressure;BME280_temperature;BME280_humidity;BME280_pressure;Samples;Min_cycle;Max_cycle;Signal;HPM_P1;HPM_P2
2022/03/25 00:01:54;;;;;;;;;;;5.80;99.90;;;;;;5052696;28;19987;-50
2022/03/25 00:04:20;;;;;;;;;;;5.80;99.90;;;;;;5052696;28;19968;-46
2022/03/25 00:06:45;;;;;;;;;;;5.80;99.90;;;;;;5034650;28;20034;-46
2022/03/25 00:09:11;;;;;;;;;;;5.80;99.90;;;;;;5034571;28;20365;-47
2022/03/25 00:11:36;;;;;;;;;;;5.80;99.90;;;;;;5052791;28;19932;-46
2022/03/25 00:14:02;;;;;;;;;;;5.70;99.90;;;;;;5052650;28;19925;-48
2022/03/25 00:16:28;;;;;;;;;;;5.70;99.90;;;;;;5052617;28;19925;-48
2022/03/25 00:18:54;;;;;;;;;;;5.70;99.90;;;;;;5052444;28;19925;-49
2022/03/25 00:21:20;;;;;;;;;;;5.70;99.90;;;;;;5052526;28;19925;-47
2022/03/25 00:23:45;;;;;;;;;;;5.60;99.90;;;;;;5052414;28;19928;-50
2022/03/25 00:26:11;;;;;;;;;;;5.60;99.90;;;;;;5052331;28;19932;-49
2022/03/25 00:28:37;;;;;;;;;;;5.60;99.90;;;;;;5052618;28;19929;-51
2022/03/25 00:31:06;;;;;;;;;;;5.60;99.90;;;;;;5052639;28;20329;-47
2022/03/25 00:33:32;;;;;;;;;;;5.60;99.90;;;;;;5052455;28;19932;-49
2022/03/25 00:35:58;;;;;;;;;;;5.50;99.90;;;;;;5052493;28;20027;-46
2022/03/25 00:38:23;;;;;;;;;;;5.50;99.90;;;;;;5052366;28;19924;-46
2022/03/25 00:40:49;;;;;;;;;;;5.50;99.90;;;;;;5052397;28;20239;-47
2022/03/25 00:43:15;;;;;;;;;;;5.50;99.90;;;;;;5052502;28;20232;-47
2022/03/25 00:45:41;;;;;;;;;;;5.40;99.90;;;;;;5052444;28;19925;-46
2022/03/25 00:48:07;;;;;;;;;;;5.40;99.90;;;;;;5034811;28;19924;-49
2022/03/25 00:50:33;;;;;;;;;;;5.40;99.90;;;;;;5052385;28;19928;-47
2022/03/25 00:52:58;;;;;;;;;;;5.30;99.90;;;;;;5052146;28;19944;-47
2022/03/25 00:55:24;;;;;;;;;;;5.30;99.90;;;;;;5052316;28;20396;-47
2022/03/25 00:57:49;;;;;;;;;;;5.20;99.90;;;;;;5052326;28;19925;-46
2022/03/25 01:00:15;;;;;;;;;;;5.20;99.90;;;;;;5052277;28;19925;-47
2022/03/25 01:02:40;;;;;;;;;;;5.20;99.90;;;;;;5052193;28;19931;-50
2022/03/25 01:05:06;;;;;;;;;;;5.20;99.90;;;;;;5052183;28;19964;-49
2022/03/25 01:07:34;;;;;;;;;;;5.20;99.90;;;;;;5034149;28;19932;-50
2022/03/25 01:09:59;;;;;;;;;;;5.10;99.90;;;;;;5056102;28;19929;-50
2022/03/25 01:12:25;;;;;;;;;;;5.10;99.90;;;;;;5055860;28;20432;-50
2022/03/25 01:14:51;;;;;;;;;;;5.10;99.90;;;;;;5055934;28;20015;-50
2022/03/25 01:17:16;;;;;;;;;;;5.00;99.90;;;;;;5055943;28;20283;-47
2022/03/25 01:19:42;;;;;;;;;;;5.00;99.90;;;;;;5055651;28;19931;-48
2022/03/25 01:22:08;;;;;;;;;;;5.00;99.90;;;;;;5055461;28;19925;-47
2022/03/25 01:24:33;;;;;;;;;;;5.00;99.90;;;;;;5055654;28;20478;-49
2022/03/25 01:26:59;;;;;;;;;;;4.90;99.90;;;;;;5055723;28;19925;-51
2022/03/25 01:29:26;;;;;;;;;;;4.90;99.90;;;;;;5055674;28;20019;-48
2022/03/25 01:31:51;;;;;;;;;;;4.90;99.90;;;;;;5055534;28;19968;-46
2022/03/25 01:34:17;;;;;;;;;;;4.80;99.90;;;;;;5055897;28;19948;-46
2022/03/25 01:36:42;;;;;;;;;;;4.80;99.90;;;;;;5037248;28;19929;-49
2022/03/25 01:39:08;;;;;;;;;;;4.80;99.90;;;;;;5055571;28;19931;-47
2022/03/25 01:41:33;;;;;;;;;;;4.80;99.90;;;;;;5055391;28;19924;-50
2022/03/25 01:44:00;;;;;;;;;;;4.70;99.90;;;;;;5055284;28;19971;-47
2022/03/25 01:46:26;;;;;;;;;;;4.70;99.90;;;;;;5055500;28;19932;-48
2022/03/25 01:48:52;;;;;;;;;;;4.70;99.90;;;;;;5055199;28;19986;-46
2022/03/25 01:51:29;;;;;;;;;;;4.70;99.90;;;;;;5054959;28;19925;-50
2022/03/25 01:53:59;;;;;;;;;;;4.70;99.90;;;;;;5054850;28;19970;-46
2022/03/25 01:56:24;;;;;;;;;;;4.70;99.90;;;;;;5055127;28;19921;-47
2022/03/25 01:58:50;;;;;;;;;;;4.70;99.90;;;;;;5055117;28;20351;-48
2022/03/25 02:01:16;;;;;;;;;;;4.60;99.90;;;;;;5055333;28;19925;-47
2022/03/25 02:03:44;;;;;;;;;;;4.60;99.90;;;;;;5037045;28;20004;-50
2022/03/25 02:06:10;;;;;;;;;;;4.60;99.90;;;;;;5054823;28;20350;-48
2022/03/25 02:08:35;;;;;;;;;;;4.50;99.90;;;;;;5037300;28;19925;-47
2022/03/25 02:11:01;;;;;;;;;;;4.50;99.90;;;;;;5054492;28;20306;-47
2022/03/25 02:13:26;;;;;;;;;;;4.50;99.90;;;;;;5036686;28;20016;-46
2022/03/25 02:15:52;;;;;;;;;;;4.40;99.90;;;;;;5054147;28;19925;-46
2022/03/25 02:18:18;;;;;;;;;;;4.40;99.90;;;;;;5054056;28;19931;-50
2022/03/25 02:20:44;;;;;;;;;;;4.40;99.90;;;;;;5053982;28;20298;-48
2022/03/25 02:23:11;;;;;;;;;;;4.40;99.90;;;;;;5054385;28;19929;-46
2022/03/25 02:25:38;;;;;;;;;;;4.30;99.90;;;;;;5054418;28;19947;-46
2022/03/25 02:28:04;;;;;;;;;;;4.20;99.90;;;;;;5054071;28;19978;-46
2022/03/25 02:30:30;;;;;;;;;;;4.10;99.90;;;;;;5053904;28;19936;-50
2022/03/25 02:33:00;;;;;;;;;;;4.00;99.90;;;;;;5054196;28;20019;-49
2022/03/25 02:35:45;;;;;;;;;;;4.00;99.90;;;;;;5053884;28;19931;-49
2022/03/25 02:38:12;;;;;;;;;;;3.90;99.90;;;;;;5053893;28;19925;-48
2022/03/25 02:40:37;;;;;;;;;;;3.90;99.90;;;;;;5053598;28;19979;-50
2022/03/25 02:43:03;;;;;;;;;;;3.80;99.90;;;;;;5053675;28;19925;-46
2022/03/25 02:45:28;;;;;;;;;;;3.70;99.90;;;;;;5053667;28;19924;-47
2022/03/25 02:47:54;;;;;;;;;;;3.70;99.90;;;;;;5053791;28;20355;-50
2022/03/25 02:52:47;;;;;;;;;;;3.60;99.90;;;;;;4964337;28;20304;-56
2022/03/25 02:55:12;;;;;;;;;;;3.50;99.90;;;;;;4968746;28;19933;-57
2022/03/25 02:57:38;;;;;;;;;;;3.50;99.90;;;;;;4956764;29;19930;-56
2022/03/25 03:00:07;;;;;;;;;;;3.50;99.90;;;;;;4969009;28;19926;-55
2022/03/25 03:02:34;;;;;;;;;;;3.50;99.90;;;;;;4976303;28;19926;-54
2022/03/25 03:04:59;;;;;;;;;;;3.50;99.90;;;;;;4976384;28;19926;-57
2022/03/25 03:07:25;;;;;;;;;;;3.40;99.90;;;;;;4973297;28;20393;-57
2022/03/25 03:09:50;;;;;;;;;;;3.30;99.90;;;;;;4956696;29;19927;-55
2022/03/25 03:12:16;;;;;;;;;;;3.40;99.90;;;;;;4956491;29;19927;-56
2022/03/25 03:14:41;;;;;;;;;;;3.30;99.90;;;;;;4956189;29;19931;-56
2022/03/25 03:17:08;;;;;;;;;;;3.30;99.90;;;;;;4956678;29;20025;-57
2022/03/25 03:19:34;;;;;;;;;;;3.30;99.90;;;;;;4956454;29;19926;-56
2022/03/25 03:22:00;;;;;;;;;;;3.30;99.90;;;;;;4956246;29;20020;-55
2022/03/25 03:24:26;;;;;;;;;;;3.20;99.90;;;;;;4958214;28;19933;-56
2022/03/25 03:26:52;;;;;;;;;;;3.30;99.90;;;;;;4975553;28;19930;-57
2022/03/25 03:29:18;;;;;;;;;;;3.30;99.90;;;;;;4975850;28;19934;-56
2022/03/25 03:31:43;;;;;;;;;;;3.30;99.90;;;;;;4974855;28;19926;-55
2022/03/25 03:34:09;;;;;;;;;;;3.20;99.90;;;;;;4975507;28;19933;-56
2022/03/25 03:36:34;;;;;;;;;;;3.20;99.90;;;;;;4975266;28;19926;-56
2022/03/25 03:39:00;;;;;;;;;;;3.30;99.90;;;;;;4975501;28;19932;-56
2022/03/25 03:41:26;;;;;;;;;;;3.20;99.90;;;;;;4975308;28;19926;-57
2022/03/25 03:43:51;;;;;;;;;;;3.20;99.90;;;;;;4975433;28;19933;-56
2022/03/25 03:46:17;;;;;;;;;;;3.30;99.90;;;;;;4975571;28;19930;-56
2022/03/25 03:48:43;;;;;;;;;;;3.20;99.90;;;;;;4975165;28;19926;-55
2022/03/25 03:51:08;;;;;;;;;;;3.20;99.90;;;;;;4982151;28;19930;-56
2022/03/25 03:53:34;;;;;;;;;;;3.20;99.90;;;;;;4994857;28;19926;-56
2022/03/25 03:55:59;;;;;;;;;;;3.20;99.90;;;;;;4994690;28;19938;-56
2022/03/25 03:58:25;;;;;;;;;;;3.20;99.90;;;;;;4993625;28;19979;-56
2022/03/25 04:00:50;;;;;;;;;;;3.20;99.90;;;;;;4975334;28;20377;-56
2022/03/25 04:03:16;;;;;;;;;;;3.20;99.90;;;;;;4975018;28;20009;-56
2022/03/25 04:05:42;;;;;;;;;;;3.20;99.90;;;;;;4975225;28;19930;-56
2022/03/25 04:08:08;;;;;;;;;;;3.10;99.90;;;;;;4975062;28;20435;-56
2022/03/25 04:10:33;;;;;;;;;;;3.10;99.90;;;;;;4975043;28;19926;-56
2022/03/25 04:12:59;;;;;;;;;;;3.10;99.90;;;;;;4974825;28;19930;-57
2022/03/25 04:15:24;;;;;;;;;;;3.10;99.90;;;;;;4975090;28;19933;-56
2022/03/25 04:17:50;;;;;;;;;;;3.10;99.90;;;;;;4974893;28;20448;-56
2022/03/25 04:20:15;;;;;;;;;;;3.10;99.90;;;;;;4974957;28;19926;-57
2022/03/25 04:22:42;;;;;;;;;;;3.20;99.90;;;;;;4974895;28;19926;-57
2022/03/25 04:25:07;;;;;;;;;;;3.10;99.90;;;;;;4975263;28;19926;-55
2022/03/25 04:27:34;;;;;;;;;;;3.10;99.90;;;;;;4974621;28;20300;-56
2022/03/25 04:29:59;;;;;;;;;;;3.10;99.90;;;;;;4974791;28;19933;-55
2022/03/25 04:32:25;;;;;;;;;;;3.10;99.90;;;;;;4974771;28;20009;-56
2022/03/25 04:34:50;;;;;;;;;;;3.10;99.90;;;;;;4974705;28;19933;-55
2022/03/25 04:37:15;;;;;;;;;;;3.00;99.90;;;;;;4974720;28;20286;-56
2022/03/25 04:39:41;;;;;;;;;;;3.00;99.90;;;;;;4974712;28;20029;-56
2022/03/25 04:42:07;;;;;;;;;;;3.00;99.90;;;;;;4975610;28;19933;-57
2022/03/25 04:44:33;;;;;;;;;;;3.00;99.90;;;;;;4978643;28;19933;-56
2022/03/25 04:46:59;;;;;;;;;;;3.00;99.90;;;;;;4978549;28;19926;-57
2022/03/25 04:49:24;;;;;;;;;;;3.00;99.90;;;;;;4978562;28;19954;-57
2022/03/25 04:51:50;;;;;;;;;;;2.90;99.90;;;;;;4978084;28;19926;-55
2022/03/25 04:54:15;;;;;;;;;;;2.90;99.90;;;;;;4960842;28;19933;-56
2022/03/25 04:56:41;;;;;;;;;;;2.90;99.90;;;;;;4978182;28;19933;-57
2022/03/25 04:59:06;;;;;;;;;;;2.80;99.90;;;;;;4978539;28;20352;-55
2022/03/25 05:01:32;;;;;;;;;;;2.90;99.90;;;;;;4978123;28;19926;-57
2022/03/25 05:03:58;;;;;;;;;;;2.80;99.90;;;;;;4978532;28;19933;-55
2022/03/25 05:06:23;;;;;;;;;;;2.80;99.90;;;;;;4978160;28;19955;-56
2022/03/25 05:08:49;;;;;;;;;;;2.70;99.90;;;;;;4978303;28;20004;-54
2022/03/25 05:11:15;;;;;;;;;;;2.70;99.90;;;;;;4978026;28;20305;-55
2022/03/25 05:13:40;;;;;;;;;;;2.70;99.90;;;;;;4978208;28;19926;-55
2022/03/25 05:16:06;;;;;;;;;;;2.70;99.90;;;;;;4978183;28;19969;-56
2022/03/25 05:18:31;;;;;;;;;;;2.60;99.90;;;;;;4977864;28;19933;-56
2022/03/25 05:20:57;;;;;;;;;;;2.60;99.90;;;;;;4977897;28;19926;-55
2022/03/25 05:23:23;;;;;;;;;;;2.50;99.90;;;;;;4977851;28;20373;-55
2022/03/25 05:25:48;;;;;;;;;;;2.50;99.90;;;;;;4977683;28;19932;-56
2022/03/25 05:28:15;;;;;;;;;;;2.50;99.90;;;;;;4977934;28;19926;-56
2022/03/25 05:30:40;;;;;;;;;;;2.50;99.90;;;;;;4978000;28;19980;-56
2022/03/25 05:33:06;;;;;;;;;;;2.50;99.90;;;;;;4977893;28;20340;-56
2022/03/25 05:35:32;;;;;;;;;;;2.50;99.90;;;;;;4977693;28;19985;-56
2022/03/25 05:37:58;;;;;;;;;;;2.50;99.90;;;;;;4977571;28;19927;-55
2022/03/25 05:40:25;;;;;;;;;;;2.50;99.90;;;;;;4977499;28;19980;-55
2022/03/25 05:42:50;;;;;;;;;;;2.50;99.90;;;;;;4977844;28;20017;-56
2022/03/25 05:45:17;;;;;;;;;;;2.50;99.90;;;;;;4977416;28;20017;-57
2022/03/25 05:47:42;;;;;;;;;;;2.50;99.90;;;;;;4977545;28;19933;-55
2022/03/25 05:50:08;;;;;;;;;;;2.60;99.90;;;;;;4977440;28;19957;-57
2022/03/25 05:52:34;;;;;;;;;;;2.60;99.90;;;;;;4977284;28;19927;-56
2022/03/25 05:55:00;;;;;;;;;;;2.50;99.90;;;;;;4976538;28;20009;-55
2022/03/25 05:57:26;;;;;;;;;;;2.60;99.90;;;;;;4977348;28;20412;-56
2022/03/25 05:59:51;;;;;;;;;;;2.60;99.90;;;;;;4977279;28;19930;-56
2022/03/25 06:02:16;;;;;;;;;;;2.50;99.90;;;;;;4977202;28;19972;-56
2022/03/25 06:04:42;;;;;;;;;;;2.50;99.90;;;;;;4977158;28;20369;-56
2022/03/25 06:07:10;;;;;;;;;;;2.50;99.90;;;;;;4977369;28;19949;-57
2022/03/25 06:09:36;;;;;;;;;;;2.60;99.90;;;;;;4977052;28;19932;-57
2022/03/25 06:12:02;;;;;;;;;;;2.60;99.90;;;;;;4977032;28;20017;-56
2022/03/25 06:14:27;;;;;;;;;;;2.60;99.90;;;;;;4977202;28;20012;-56
2022/03/25 06:16:53;;;;;;;;;;;2.60;99.90;;;;;;4977137;28;20420;-57
2022/03/25 06:19:18;;;;;;;;;;;2.60;99.90;;;;;;4977085;28;19926;-57
2022/03/25 06:21:44;;;;;;;;;;;2.60;99.90;;;;;;4976847;28;19933;-56
2022/03/25 06:24:10;;;;;;;;;;;2.70;99.90;;;;;;4976578;28;19972;-56
2022/03/25 06:26:35;;;;;;;;;;;2.80;99.90;;;;;;4976773;28;19930;-55
2022/03/25 06:29:01;;;;;;;;;;;2.90;99.90;;;;;;4976845;28;19930;-56
2022/03/25 06:31:26;;;;;;;;;;;3.10;99.90;;;;;;4959306;28;19935;-56
2022/03/25 06:33:52;;;;;;;;;;;3.20;99.90;;;;;;4975562;28;19930;-53
2022/03/25 06:36:18;;;;;;;;;;;3.20;99.90;;;;;;4977212;28;19927;-55
2022/03/25 06:38:43;;;;;;;;;;;3.30;99.90;;;;;;4976710;28;19996;-52
2022/03/25 06:41:09;;;;;;;;;;;3.40;99.90;;;;;;4976657;28;19926;-55
2022/03/25 06:43:35;;;;;;;;;;;3.60;99.90;;;;;;4976582;28;19926;-55
2022/03/25 06:46:01;;;;;;;;;;;3.70;99.90;;;;;;4976464;28;19926;-55
2022/03/25 06:48:26;;;;;;;;;;;4.00;99.90;;;;;;4976547;28;20392;-55
2022/03/25 06:50:53;;;;;;;;;;;4.20;99.90;;;;;;4975997;28;19949;-55
2022/03/25 06:53:18;;;;;;;;;;;4.50;99.90;;;;;;4976188;28;20420;-53
2022/03/25 06:55:44;;;;;;;;;;;4.80;99.90;;;;;;4976339;28;20365;-56
2022/03/25 06:58:10;;;;;;;;;;;5.40;99.90;;;;;;4976162;28;20022;-56
2022/03/25 07:00:36;;;;;;;;;;;5.70;99.90;;;;;;4976080;28;20009;-56
2022/03/25 07:03:01;;;;;;;;;;;6.00;99.90;;;;;;4975974;28;20427;-56
2022/03/25 07:05:30;;;;;;;;;;;6.50;99.90;;;;;;4974977;28;19933;-56
2022/03/25 07:07:55;;;;;;;;;;;6.70;99.90;;;;;;4975375;28;19926;-56
2022/03/25 07:10:23;;;;;;;;;;;6.80;99.90;;;;;;4975868;28;19930;-54
2022/03/25 07:12:49;;;;;;;;;;;7.20;99.90;;;;;;4975872;28;19980;-56
2022/03/25 07:15:15;;;;;;;;;;;7.00;99.90;;;;;;4975541;28;20341;-56
2022/03/25 07:17:43;;;;;;;;;;;6.70;99.90;;;;;;4975522;28;19989;-57
2022/03/25 07:20:13;;;;;;;;;;;6.30;99.90;;;;;;4975465;28;19981;-57
2022/03/25 07:22:39;;;;;;;;;;;6.10;99.90;;;;;;4975194;28;19926;-54
2022/03/25 07:25:04;;;;;;;;;;;6.00;99.90;;;;;;4975333;28;20400;-53
2022/03/25 07:27:30;;;;;;;;;;;6.00;99.90;;;;;;4958068;28;20348;-55
2022/03/25 07:29:55;;;;;;;;;;;5.90;99.90;;;;;;4975340;28;20348;-56
2022/03/25 07:32:21;;;;;;;;;;;6.00;99.90;;;;;;4975131;28;19933;-55
2022/03/25 07:34:46;;;;;;;;;;;6.00;99.90;;;;;;4975205;28;19949;-53
2022/03/25 07:37:12;;;;;;;;;;;5.90;99.90;;;;;;4975233;28;19936;-55
2022/03/25 07:39:38;;;;;;;;;;;5.90;99.90;;;;;;4975052;28;19997;-55
2022/03/25 07:42:04;;;;;;;;;;;6.00;99.90;;;;;;4975021;28;20008;-56
2022/03/25 07:44:31;;;;;;;;;;;6.00;99.90;;;;;;4974830;28;20359;-55
2022/03/25 07:46:56;;;;;;;;;;;6.10;99.90;;;;;;4975066;28;20278;-56
2022/03/25 07:49:22;;;;;;;;;;;6.10;99.90;;;;;;4974834;28;19937;-55
2022/03/25 07:51:47;;;;;;;;;;;6.10;99.90;;;;;;4974498;28;20376;-56
2022/03/25 07:54:13;;;;;;;;;;;6.10;99.90;;;;;;4974934;28;19926;-54
2022/03/25 07:56:39;;;;;;;;;;;6.20;99.90;;;;;;4974857;28;19926;-56
2022/03/25 07:59:04;;;;;;;;;;;6.30;99.90;;;;;;4974792;28;19926;-56
2022/03/25 08:01:30;;;;;;;;;;;6.40;99.90;;;;;;4974575;28;20014;-55
2022/03/25 08:03:56;;;;;;;;;;;6.70;99.90;;;;;;4973428;28;20264;-54
2022/03/25 08:06:22;;;;;;;;;;;6.80;99.90;;;;;;4974651;28;19926;-57
2022/03/25 08:08:48;;;;;;;;;;;7.00;99.90;;;;;;4974799;28;19945;-56
2022/03/25 08:11:14;;;;;;;;;;;7.00;99.90;;;;;;4974634;28;19926;-55
2022/03/25 08:13:39;;;;;;;;;;;7.10;99.90;;;;;;4974714;28;19926;-55
2022/03/25 08:16:05;;;;;;;;;;;7.30;99.90;;;;;;4974501;28;19949;-55
2022/03/25 08:18:30;;;;;;;;;;;7.40;99.90;;;;;;4974050;28;20016;-56
2022/03/25 08:20:57;;;;;;;;;;;7.50;99.90;;;;;;4974320;28;19930;-56
2022/03/25 08:28:55;;;;;;;;;;;7.90;99.90;;;;;;4974467;28;19937;-55
2022/03/25 08:31:21;;;;;;;;;;;8.00;99.90;;;;;;4974351;28;19927;-56
2022/03/25 08:33:47;;;;;;;;;;;8.00;99.90;;;;;;4974273;28;20432;-55
2022/03/25 08:36:12;;;;;;;;;;;8.20;99.90;;;;;;4974399;28;19969;-56
2022/03/25 08:38:38;;;;;;;;;;;8.30;99.90;;;;;;4974249;28;19926;-56
2022/03/25 08:41:04;;;;;;;;;;;8.50;99.90;;;;;;4974218;28;20300;-56
2022/03/25 08:43:30;;;;;;;;;;;8.50;99.90;;;;;;4974176;28;20376;-52
2022/03/25 08:45:56;;;;;;;;;;;8.60;99.90;;;;;;4974011;28;20013;-56
2022/03/25 08:48:22;;;;;;;;;;;8.70;99.90;;;;;;4974216;28;19934;-52
2022/03/25 08:50:47;;;;;;;;;;;8.90;99.90;;;;;;4973891;28;19926;-54
2022/03/25 08:53:12;;;;;;;;;;;8.80;99.90;;;;;;4974311;28;19978;-51
2022/03/25 08:55:38;;;;;;;;;;;8.90;99.90;;;;;;4974185;28;19930;-52
2022/03/25 08:58:04;;;;;;;;;;;9.10;99.90;;;;;;4974062;28;20301;-56
2022/03/25 09:00:29;;;;;;;;;;;9.20;99.90;;;;;;4974138;28;19973;-56
2022/03/25 09:02:55;;;;;;;;;;;9.30;99.90;;;;;;4974170;28;19933;-55
2022/03/25 09:05:20;;;;;;;;;;;9.50;99.90;;;;;;4973847;28;19926;-56
2022/03/25 09:07:46;;;;;;;;;;;9.60;99.90;;;;;;4974221;28;19926;-57
2022/03/25 09:10:16;;;;;;;;;;;9.90;99.90;;;;;;4974123;28;19980;-54
2022/03/25 09:12:42;;;;;;;;;;;;;;;;;;4973871;28;20418;-54
2022/03/25 09:15:08;;;;;;;;;;;10.20;99.90;;;;;;4973736;28;19927;-56
2022/03/25 09:17:36;;;;;;;;;;;;;;;;;;4974034;28;20365;-55
2022/03/25 09:20:03;;;;;;;;;;;10.20;99.90;;;;;;4973966;28;20014;-55
2022/03/25 09:22:30;;;;;;;;;;;10.70;99.90;;;;;;4973876;28;20025;-56
2022/03/25 09:24:55;;;;;;;;;;;10.80;99.90;;;;;;4973934;28;19926;-57
2022/03/25 09:27:21;;;;;;;;;;;10.80;99.90;;;;;;4974102;28;19996;-57
2022/03/25 09:29:47;;;;;;;;;;;11.00;99.90;;;;;;4975899;28;19933;-57
2022/03/25 09:32:12;;;;;;;;;;;11.20;99.90;;;;;;4977674;28;20005;-57
2022/03/25 09:37:22;;;;;;;;;;;11.40;99.90;;;;;;4977422;28;20388;-57
2022/03/25 09:39:48;;;;;;;;;;;11.40;99.90;;;;;;4977422;28;19927;-57
2022/03/25 09:42:14;;;;;;;;;;;11.70;99.90;;;;;;4976049;28;19926;-57
2022/03/25 09:44:41;;;;;;;;;;;11.60;99.90;;;;;;4977371;28;19926;-56
2022/03/25 09:47:07;;;;;;;;;;;11.60;99.90;;;;;;4977434;28;19984;-57
2022/03/25 09:49:32;;;;;;;;;;;11.90;99.90;;;;;;4977250;28;19997;-57
2022/03/25 09:51:58;;;;;;;;;;;12.00;99.90;;;;;;4976809;28;19926;-57
2022/03/25 09:54:24;;;;;;;;;;;12.10;99.90;;;;;;4977359;28;20432;-55
2022/03/25 09:56:49;;;;;;;;;;;12.30;99.90;;;;;;4977277;28;19926;-57
2022/03/25 09:59:16;;;;;;;;;;;12.50;99.90;;;;;;4977133;28;20381;-57
2022/03/25 10:01:41;;;;;;;;;;;12.60;99.90;;;;;;4976922;28;19943;-57
2022/03/25 10:04:07;;;;;;;;;;;12.60;99.90;;;;;;4976933;28;19926;-57
2022/03/25 10:06:44;;;;;;;;;;;12.70;99.90;;;;;;4976936;28;19926;-57
2022/03/25 10:09:09;;;;;;;;;;;13.00;99.90;;;;;;4976846;28;20410;-57
2022/03/25 10:11:35;;;;;;;;;;;13.00;99.90;;;;;;4976986;28;20016;-57
2022/03/25 10:14:14;;;;;;;;;;;13.20;99.90;;;;;;4976837;28;19926;-57
2022/03/25 10:16:40;;;;;;;;;;;13.50;99.90;;;;;;4976605;28;20414;-57
2022/03/25 10:19:06;;;;;;;;;;;13.60;99.90;;;;;;4976518;28;19933;-57
2022/03/25 10:21:48;;;;;;;;;;;13.80;99.90;;;;;;4976525;28;19930;-57
2022/03/25 10:24:18;;;;;;;;;;;13.90;99.90;;;;;;4976674;28;19926;-57
2022/03/25 10:26:43;;;;;;;;;;;14.00;99.90;;;;;;4976768;28;19965;-57
2022/03/25 10:29:22;;;;;;;;;;;14.00;99.90;;;;;;4959385;28;19973;-57
2022/03/25 10:32:04;;;;;;;;;;;14.00;99.90;;;;;;4976353;28;20376;-57
2022/03/25 10:34:30;;;;;;;;;;;14.10;99.90;;;;;;4976262;28;20345;-55
2022/03/25 10:37:04;;;;;;;;;;;14.10;99.90;;;;;;4976520;28;19930;-54
2022/03/25 10:39:30;;;;;;;;;;;14.10;99.70;;;;;;4976363;28;19926;-54
2022/03/25 10:41:59;;;;;;;;;;;14.10;98.20;;;;;;4976046;28;20422;-55
2022/03/25 10:44:34;;;;;;;;;;;14.00;99.20;;;;;;4976091;28;19926;-54
2022/03/25 10:46:59;;;;;;;;;;;14.20;99.90;;;;;;4976349;28;19926;-55
2022/03/25 10:49:36;;;;;;;;;;;14.30;99.70;;;;;;4976396;28;19933;-55
2022/03/25 10:52:03;;;;;;;;;;;14.40;98.90;;;;;;4975826;28;20423;-55
2022/03/25 10:54:29;;;;;;;;;;;14.50;97.30;;;;;;4976113;28;19926;-54
2022/03/25 10:56:56;;;;;;;;;;;14.60;98.60;;;;;;4975849;28;19938;-54
2022/03/25 10:59:25;;;;;;;;;;;14.70;97.80;;;;;;4975857;28;19980;-55
2022/03/25 11:01:52;;;;;;;;;;;14.90;98.60;;;;;;4975686;28;20285;-55
2022/03/25 11:04:18;;;;;;;;;;;14.90;93.60;;;;;;4975859;28;19926;-55
2022/03/25 11:06:47;;;;;;;;;;;14.90;94.00;;;;;;4975816;28;19972;-55
2022/03/25 11:09:13;;;;;;;;;;;15.00;93.60;;;;;;4975773;28;19926;-53
2022/03/25 11:11:42;;;;;;;;;;;14.90;91.70;;;;;;4975432;28;20017;-54
2022/03/25 11:14:08;;;;;;;;;;;15.10;92.10;;;;;;4975760;28;19978;-55
2022/03/25 11:16:35;;;;;;;;;;;15.20;91.50;;;;;;4975668;28;19957;-55
2022/03/25 11:19:01;;;;;;;;;;;15.10;90.20;;;;;;4975559;28;19933;-55
2022/03/25 11:21:26;;;;;;;;;;;15.10;91.70;;;;;;4975490;28;19926;-54
2022/03/25 11:23:52;;;;;;;;;;;15.30;91.80;;;;;;4975503;28;20404;-55
2022/03/25 11:26:21;;;;;;;;;;;15.40;90.20;;;;;;4975464;28;20040;-54
2022/03/25 11:28:50;;;;;;;;;;;15.40;91.10;;;;;;4975365;28;20380;-55
2022/03/25 11:31:15;;;;;;;;;;;15.50;90.40;;;;;;4975188;28;20277;-55
2022/03/25 11:33:59;;;;;;;;;;;15.60;90.00;;;;;;4975378;28;19981;-55
2022/03/25 11:36:25;;;;;;;;;;;15.50;85.30;;;;;;4975286;28;19926;-55
2022/03/25 11:39:11;;;;;;;;;;;15.70;88.00;;;;;;4975147;28;19951;-54
2022/03/25 11:41:36;;;;;;;;;;;15.80;85.70;;;;;;4975115;28;19926;-55
2022/03/25 11:44:16;;;;;;;;;;;15.90;84.20;;;;;;4975205;28;20357;-55
2022/03/25 11:47:00;;;;;;;;;;;16.00;84.60;;;;;;4975002;28;20014;-55
2022/03/25 11:49:29;;;;;;;;;;;16.00;82.30;;;;;;4974892;28;20399;-54
2022/03/25 11:51:55;;;;;;;;;;;15.90;80.30;;;;;;4974122;28;19930;-55
2022/03/25 11:54:40;;;;;;;;;;;16.10;82.20;;;;;;4975042;28;19973;-54
2022/03/25 11:57:07;;;;;;;;;;;16.10;80.50;;;;;;4974928;28;19933;-54
2022/03/25 11:59:46;;;;;;;;;;;16.20;81.50;;;;;;4974968;28;19930;-54
2022/03/25 12:02:24;;;;;;;;;;;16.30;81.70;;;;;;4974845;28;20023;-53
2022/03/25 12:04:50;;;;;;;;;;;16.30;82.50;;;;;;4973685;28;19926;-54
2022/03/25 12:07:16;;;;;;;;;;;16.50;81.00;;;;;;4974782;28;19949;-54
2022/03/25 12:09:45;;;;;;;;;;;16.60;77.70;;;;;;4974721;28;20040;-54
2022/03/25 12:12:10;;;;;;;;;;;16.60;80.40;;;;;;4974586;28;20014;-54
2022/03/25 12:14:56;;;;;;;;;;;16.80;80.60;;;;;;4974801;28;19969;-54
2022/03/25 12:17:22;;;;;;;;;;;16.90;80.30;;;;;;4974451;28;19926;-55
2022/03/25 12:19:50;;;;;;;;;;;16.70;76.70;;;;;;4974609;28;19934;-54
2022/03/25 12:22:18;;;;;;;;;;;16.80;78.10;;;;;;4974527;28;19926;-55
2022/03/25 12:24:44;;;;;;;;;;;16.90;76.90;;;;;;4974380;28;20373;-54
2022/03/25 12:27:10;;;;;;;;;;;17.00;77.20;;;;;;4974622;28;19930;-55
2022/03/25 12:29:39;;;;;;;;;;;17.00;75.40;;;;;;4974629;28;19933;-54
2022/03/25 12:32:06;;;;;;;;;;;17.00;75.00;;;;;;4974452;28;20376;-55
2022/03/25 12:34:35;;;;;;;;;;;17.10;72.60;;;;;;4974536;28;20396;-54
2022/03/25 12:37:02;;;;;;;;;;;17.20;75.80;;;;;;4974639;28;19980;-55
2022/03/25 12:39:28;;;;;;;;;;;17.30;71.70;;;;;;4974229;28;19926;-55
2022/03/25 12:41:53;;;;;;;;;;;17.20;73.30;;;;;;4974482;28;19926;-55
2022/03/25 12:44:26;;;;;;;;;;;17.30;74.50;;;;;;4974416;28;20304;-54
2022/03/25 12:46:52;;;;;;;;;;;17.30;69.90;;;;;;4974366;28;19926;-54
2022/03/25 12:49:17;;;;;;;;;;;17.20;69.70;;;;;;4974378;28;20049;-54
2022/03/25 12:51:53;;;;;;;;;;;17.20;68.90;;;;;;4974168;28;19933;-55
2022/03/25 12:54:19;;;;;;;;;;;17.20;68.30;;;;;;4956884;28;20405;-54
2022/03/25 12:56:55;;;;;;;;;;;17.20;67.90;;;;;;4974277;28;19969;-54
2022/03/25 12:59:27;;;;;;;;;;;17.10;68.30;;;;;;4974298;28;20377;-55
2022/03/25 13:01:52;;;;;;;;;;;17.20;69.10;;;;;;4974126;28;19988;-55
2022/03/25 13:04:25;;;;;;;;;;;17.20;66.60;;;;;;4975274;28;19981;-55
2022/03/25 13:06:56;;;;;;;;;;;17.30;68.80;;;;;;4977881;28;20369;-55
2022/03/25 13:09:21;;;;;;;;;;;17.40;68.30;;;;;;4978078;28;19973;-55
2022/03/25 13:11:54;;;;;;;;;;;17.60;66.30;;;;;;4977930;28;19926;-55
2022/03/25 13:14:21;;;;;;;;;;;17.40;64.80;;;;;;4977768;28;19988;-54
2022/03/25 13:16:47;;;;;;;;;;;17.40;65.10;;;;;;4977740;28;20344;-55
2022/03/25 13:19:13;;;;;;;;;;;17.50;63.90;;;;;;4977692;28;20292;-55
2022/03/25 13:21:39;;;;;;;;;;;17.40;62.60;;;;;;4977717;28;19926;-54
2022/03/25 13:24:05;;;;;;;;;;;17.60;62.90;;;;;;4977852;28;19926;-54
2022/03/25 13:26:30;;;;;;;;;;;17.60;62.70;;;;;;4977956;28;19981;-54
2022/03/25 13:28:56;;;;;;;;;;;17.70;62.40;;;;;;4977632;28;19926;-54
2022/03/25 13:31:22;;;;;;;;;;;17.70;61.80;;;;;;4977477;28;19926;-54
2022/03/25 13:33:50;;;;;;;;;;;17.80;62.90;;;;;;4977734;28;20284;-54
2022/03/25 13:36:17;;;;;;;;;;;17.80;61.20;;;;;;4977509;28;19926;-53
2022/03/25 13:38:44;;;;;;;;;;;17.90;59.90;;;;;;4977269;28;20403;-53
2022/03/25 13:41:11;;;;;;;;;;;17.90;58.00;;;;;;4977314;28;19926;-54
2022/03/25 13:43:38;;;;;;;;;;;17.80;60.00;;;;;;4977280;28;19933;-54
2022/03/25 13:46:04;;;;;;;;;;;17.70;58.00;;;;;;4977166;28;19930;-54
2022/03/25 13:48:40;;;;;;;;;;;17.70;56.40;;;;;;4977108;28;20376;-54
2022/03/25 13:51:20;;;;;;;;;;;17.70;57.10;;;;;;4977062;28;20387;-55
2022/03/25 13:53:46;;;;;;;;;;;17.80;58.20;;;;;;4977202;28;19926;-55
2022/03/25 13:56:13;;;;;;;;;;;17.80;56.60;;;;;;4976931;28;20024;-54
2022/03/25 13:58:43;;;;;;;;;;;17.70;54.70;;;;;;4977168;28;19930;-54
2022/03/25 14:01:08;;;;;;;;;;;17.60;55.70;;;;;;4977142;28;19926;-53
2022/03/25 14:03:34;;;;;;;;;;;17.80;56.20;;;;;;4977046;28;19988;-55
2022/03/25 14:06:15;;;;;;;;;;;18.00;55.90;;;;;;4976912;28;19973;-55
2022/03/25 14:08:41;;;;;;;;;;;17.90;53.90;;;;;;4977361;28;19930;-55
2022/03/25 14:11:07;;;;;;;;;;;17.70;53.20;;;;;;4975315;28;19933;-55
2022/03/25 14:13:33;;;;;;;;;;;17.80;53.40;;;;;;4977107;28;20308;-54
2022/03/25 14:16:18;;;;;;;;;;;17.90;53.80;;;;;;4976282;28;20365;-55
2022/03/25 14:18:51;;;;;;;;;;;18.00;53.70;;;;;;4976673;28;19972;-55
2022/03/25 14:21:23;;;;;;;;;;;18.00;52.90;;;;;;4976449;28;19926;-55
2022/03/25 14:23:49;;;;;;;;;;;18.00;53.10;;;;;;4976657;28;19933;-55
2022/03/25 14:26:14;;;;;;;;;;;17.90;53.00;;;;;;4976743;28;19926;-54
2022/03/25 14:28:39;;;;;;;;;;;17.70;53.00;;;;;;4976517;28;20017;-55
2022/03/25 14:31:05;;;;;;;;;;;17.80;53.60;;;;;;4976563;28;19926;-54
2022/03/25 14:33:30;;;;;;;;;;;17.80;53.40;;;;;;4976444;28;20021;-55
2022/03/25 14:35:56;;;;;;;;;;;17.80;53.60;;;;;;4976231;28;19962;-55